Time;durP1;ratioP1;P1;durP2;ratioP2;P2;SDS_P1;SDS_P2;PMS_P1;PMS_P2;Temp;Humidity;BMP_temperature;BMP_pressure;BME280_temperature;BME280_humidity;BME280_pressure;Samples;Min_cycle;Max_cycle;Signal;HPM_P1;HPM_P2
2021/06/23 00:01:50;;;;;;;9.52;7.00;;;;;;;;;;5053765;28;20032;-90
2021/06/23 00:04:15;;;;;;;15.98;6.53;;;;;;;;;;5053328;28;20078;-87
2021/06/23 00:06:41;;;;;;;15.90;7.57;;;;;;;;;;5053419;28;20048;-87
2021/06/23 00:09:06;;;;;;;25.85;7.03;;;;;;;;;;5053315;28;20099;-87
2021/06/23 00:11:36;;;;;;;20.38;7.13;;;;;;;;;;5054684;28;20522;-87
2021/06/23 00:14:02;;;;;;;11.05;6.57;;;;;;;;;;5053580;28;20028;-87
2021/06/23 00:16:27;;;;;;;12.00;6.90;;;;;;;;;;5053527;28;20348;-87
2021/06/23 00:18:52;;;;;;;12.85;6.13;;;;;;;;;;5054682;28;20017;-87
2021/06/23 00:21:17;;;;;;;13.73;6.10;;;;;;;;;;5053076;28;20028;-86
2021/06/23 00:23:43;;;;;;;9.07;6.05;;;;;;;;;;5053467;28;20025;-86
2021/06/23 00:26:08;;;;;;;11.82;5.97;;;;;;;;;;5053395;28;20013;-87
2021/06/23 00:28:33;;;;;;;15.77;6.80;;;;;;;;;;5052705;28;20215;-86
2021/06/23 00:30:58;;;;;;;19.15;5.70;;;;;;;;;;5080077;28;20428;-87
2021/06/23 00:33:27;;;;;;;9.75;5.78;;;;;;;;;;5053030;28;20028;-86
2021/06/23 00:35:52;;;;;;;9.93;5.70;;;;;;;;;;5053188;28;20029;-87
2021/06/23 00:38:17;;;;;;;13.98;6.10;;;;;;;;;;5052762;28;20078;-87
2021/06/23 00:40:43;;;;;;;13.88;6.18;;;;;;;;;;5053385;28;20376;-88
2021/06/23 00:43:09;;;;;;;11.65;5.57;;;;;;;;;;5053165;28;20022;-87
2021/06/23 00:45:34;;;;;;;16.20;5.90;;;;;;;;;;5052958;28;20447;-87
2021/06/23 00:48:00;;;;;;;12.63;5.55;;;;;;;;;;5052929;28;20020;-87
2021/06/23 00:50:26;;;;;;;13.05;5.15;;;;;;;;;;5053975;28;20049;-87
2021/06/23 00:52:51;;;;;;;12.45;5.82;;;;;;;;;;5053081;28;20384;-86
2021/06/23 00:55:20;;;;;;;11.35;5.70;;;;;;;;;;5052640;28;20021;-86
2021/06/23 00:57:47;;;;;;;15.80;5.97;;;;;;;;;;5054350;28;20075;-87
2021/06/23 01:00:12;;;;;;;13.45;6.25;;;;;;;;;;5052904;28;20048;-86
2021/06/23 01:02:38;;;;;;;17.60;6.28;;;;;;;;;;5052663;28;20020;-87
2021/06/23 01:05:03;;;;;;;13.40;6.22;;;;;;;;;;5052241;28;20048;-87
2021/06/23 01:07:29;;;;;;;13.68;6.32;;;;;;;;;;5052813;28;20499;-87
2021/06/23 01:09:55;;;;;;;15.43;5.65;;;;;;;;;;5053651;28;20017;-87
2021/06/23 01:12:29;;;;;;;14.98;5.75;;;;;;;;;;5052505;28;20028;-87
2021/06/23 01:14:59;;;;;;;15.98;6.22;;;;;;;;;;5052564;28;20017;-87
2021/06/23 01:17:27;;;;;;;11.35;5.72;;;;;;;;;;5052539;28;20535;-87
2021/06/23 01:19:59;;;;;;;10.65;5.53;;;;;;;;;;5052222;28;20391;-87
2021/06/23 01:22:24;;;;;;;11.50;5.80;;;;;;;;;;5052160;28;20025;-86
2021/06/23 01:24:50;;;;;;;12.00;6.00;;;;;;;;;;5052067;28;20020;-87
2021/06/23 01:27:15;;;;;;;13.35;6.40;;;;;;;;;;5052672;28;20475;-87
2021/06/23 01:29:40;;;;;;;11.40;5.68;;;;;;;;;;5052096;28;20021;-87
2021/06/23 01:32:06;;;;;;;15.45;6.20;;;;;;;;;;5052177;28;20013;-86
2021/06/23 01:34:31;;;;;;;10.38;5.53;;;;;;;;;;5052090;28;20498;-87
2021/06/23 01:36:56;;;;;;;12.75;6.10;;;;;;;;;;5053301;28;20016;-87
2021/06/23 01:39:22;;;;;;;8.80;5.80;;;;;;;;;;5053305;28;20017;-87
2021/06/23 01:41:47;;;;;;;13.32;6.40;;;;;;;;;;5051497;28;20487;-87
2021/06/23 01:44:12;;;;;;;15.50;6.50;;;;;;;;;;5051851;28;20055;-87
2021/06/23 01:46:37;;;;;;;19.30;7.20;;;;;;;;;;5053322;28;20040;-87
2021/06/23 01:49:03;;;;;;;19.92;6.95;;;;;;;;;;5050890;28;20094;-87
2021/06/23 01:51:28;;;;;;;13.95;6.15;;;;;;;;;;5051812;28;20035;-88
2021/06/23 01:53:53;;;;;;;10.50;6.28;;;;;;;;;;5051901;28;20041;-87
2021/06/23 01:56:18;;;;;;;13.25;6.88;;;;;;;;;;5051694;28;20017;-87
2021/06/23 01:58:44;;;;;;;14.15;6.05;;;;;;;;;;5051577;28;20409;-87
2021/06/23 02:01:14;;;;;;;14.35;6.40;;;;;;;;;;5051681;28;20013;-87
2021/06/23 02:03:54;;;;;;;8.15;6.05;;;;;;;;;;5051344;28;20027;-87
2021/06/23 02:06:43;;;;;;;12.32;6.63;;;;;;;;;;5038669;28;20017;-88
2021/06/23 02:09:17;;;;;;;11.43;6.07;;;;;;;;;;5051412;28;20066;-88
2021/06/23 02:11:45;;;;;;;14.85;6.15;;;;;;;;;;5051509;28;20075;-87
2021/06/23 02:14:11;;;;;;;10.38;6.28;;;;;;;;;;5052697;28;20222;-88
2021/06/23 02:16:41;;;;;;;15.88;6.78;;;;;;;;;;5051649;28;20131;-87
2021/06/23 02:19:07;;;;;;;13.43;6.57;;;;;;;;;;5051304;28;20025;-87
2021/06/23 02:21:37;;;;;;;12.73;6.75;;;;;;;;;;5051076;28;20486;-87
2021/06/23 02:24:02;;;;;;;12.25;7.22;;;;;;;;;;5051399;28;20017;-87
2021/06/23 02:26:27;;;;;;;16.15;7.00;;;;;;;;;;5051216;28;20021;-87
2021/06/23 02:28:52;;;;;;;8.45;6.38;;;;;;;;;;5051317;28;20040;-87
2021/06/23 02:31:18;;;;;;;11.45;6.50;;;;;;;;;;5052465;28;20013;-88
2021/06/23 02:33:45;;;;;;;11.40;7.00;;;;;;;;;;5052718;28;20078;-88
2021/06/23 02:36:10;;;;;;;12.50;5.90;;;;;;;;;;5051195;28;20071;-87
2021/06/23 02:38:35;;;;;;;14.98;7.20;;;;;;;;;;5052364;28;20017;-87
2021/06/23 02:41:01;;;;;;;16.67;7.55;;;;;;;;;;5051105;28;20028;-87
2021/06/23 02:43:26;;;;;;;16.77;7.97;;;;;;;;;;5052052;28;20119;-87
2021/06/23 02:45:53;;;;;;;15.57;8.05;;;;;;;;;;5051169;28;20081;-87
2021/06/23 02:48:19;;;;;;;15.90;8.32;;;;;;;;;;5052484;28;20029;-87
2021/06/23 02:50:59;;;;;;;17.17;7.80;;;;;;;;;;5051136;28;20403;-87
2021/06/23 02:53:25;;;;;;;11.68;7.88;;;;;;;;;;5051447;28;20029;-87
2021/06/23 02:55:51;;;;;;;21.23;9.38;;;;;;;;;;5050985;28;20468;-87
2021/06/23 02:58:17;;;;;;;13.40;7.72;;;;;;;;;;5050707;28;20032;-87
2021/06/23 03:00:42;;;;;;;16.92;8.15;;;;;;;;;;5051025;28;20023;-87
2021/06/23 03:03:08;;;;;;;18.92;8.98;;;;;;;;;;5052188;28;20116;-87
2021/06/23 03:05:33;;;;;;;15.10;9.15;;;;;;;;;;5051162;28;20025;-87
2021/06/23 03:07:58;;;;;;;17.15;8.90;;;;;;;;;;5051201;28;20024;-87
2021/06/23 03:10:23;;;;;;;14.73;9.45;;;;;;;;;;5050947;28;20075;-87
2021/06/23 03:12:48;;;;;;;13.23;8.73;;;;;;;;;;5050618;28;20683;-87
2021/06/23 03:15:14;;;;;;;13.07;8.52;;;;;;;;;;5050889;28;20087;-87
2021/06/23 03:17:39;;;;;;;14.77;8.13;;;;;;;;;;5050807;28;20024;-87
2021/06/23 03:20:08;;;;;;;14.35;8.18;;;;;;;;;;5050954;28;20021;-87
2021/06/23 03:22:33;;;;;;;16.40;8.80;;;;;;;;;;5050734;28;20029;-87
2021/06/23 03:24:58;;;;;;;14.63;9.00;;;;;;;;;;5050500;28;20017;-87
2021/06/23 03:27:24;;;;;;;14.10;9.00;;;;;;;;;;5054232;28;20017;-87
2021/06/23 03:29:49;;;;;;;13.13;8.50;;;;;;;;;;5054523;28;20020;-87
2021/06/23 03:32:14;;;;;;;16.00;9.15;;;;;;;;;;5054307;28;20365;-87
2021/06/23 03:34:39;;;;;;;13.35;9.35;;;;;;;;;;5054261;28;20115;-87
2021/06/23 03:37:05;;;;;;;15.13;9.43;;;;;;;;;;5054303;28;20024;-87
2021/06/23 03:39:30;;;;;;;13.00;8.73;;;;;;;;;;5054164;28;20451;-87
2021/06/23 03:41:55;;;;;;;16.38;9.15;;;;;;;;;;5054121;28;20024;-87
2021/06/23 03:44:21;;;;;;;14.13;9.45;;;;;;;;;;5053922;28;20041;-86
2021/06/23 03:46:46;;;;;;;16.50;9.27;;;;;;;;;;5054172;28;20499;-86
2021/06/23 03:49:11;;;;;;;8.27;5.85;;;;;;;;;;5054028;28;20017;-86
2021/06/23 03:51:36;;;;;;;24.52;10.38;;;;;;;;;;5053913;28;20071;-86
2021/06/23 03:54:02;;;;;;;13.57;10.05;;;;;;;;;;5053959;28;20441;-86
2021/06/23 03:56:28;;;;;;;17.38;10.23;;;;;;;;;;5054694;28;20103;-86
2021/06/23 03:58:53;;;;;;;17.02;10.55;;;;;;;;;;5053808;28;20479;-86
2021/06/23 04:01:18;;;;;;;15.43;9.85;;;;;;;;;;5053842;28;20021;-86
2021/06/23 04:03:43;;;;;;;14.10;9.35;;;;;;;;;;5053495;28;20421;-86
2021/06/23 04:06:09;;;;;;;15.68;10.75;;;;;;;;;;5055034;28;20100;-86
2021/06/23 04:08:34;;;;;;;14.68;10.00;;;;;;;;;;5053547;28;20119;-87
2021/06/23 04:10:59;;;;;;;13.77;9.95;;;;;;;;;;5053590;28;20024;-86
2021/06/23 04:13:24;;;;;;;21.63;10.32;;;;;;;;;;5054962;28;20020;-86
2021/06/23 04:15:49;;;;;;;17.33;10.20;;;;;;;;;;5053490;28;20024;-86
2021/06/23 04:18:15;;;;;;;19.02;11.05;;;;;;;;;;5053213;28;20021;-86
2021/06/23 04:20:40;;;;;;;15.95;10.70;;;;;;;;;;5053293;28;20404;-86
2021/06/23 04:23:05;;;;;;;22.75;10.35;;;;;;;;;;5053358;28;20383;-86
2021/06/23 04:25:30;;;;;;;16.40;9.48;;;;;;;;;;5054745;28;20350;-86
2021/06/23 04:27:55;;;;;;;16.10;9.60;;;;;;;;;;5053251;28;20306;-87
2021/06/23 04:30:21;;;;;;;14.70;9.20;;;;;;;;;;5053455;28;20441;-86
2021/06/23 04:32:46;;;;;;;16.30;9.70;;;;;;;;;;5053113;28;20024;-86
2021/06/23 04:35:11;;;;;;;14.57;10.00;;;;;;;;;;5053317;28;20411;-87
2021/06/23 04:37:38;;;;;;;14.00;9.50;;;;;;;;;;5052380;28;20032;-86
2021/06/23 04:40:05;;;;;;;11.13;8.10;;;;;;;;;;5052513;28;20013;-86
2021/06/23 04:42:30;;;;;;;16.13;9.75;;;;;;;;;;5053010;28;20107;-86
2021/06/23 04:44:55;;;;;;;13.13;8.55;;;;;;;;;;5052768;28;20104;-86
2021/06/23 04:47:20;;;;;;;15.15;9.23;;;;;;;;;;5052733;28;20020;-86
2021/06/23 04:49:46;;;;;;;16.63;9.13;;;;;;;;;;5052829;28;20391;-86
2021/06/23 04:52:11;;;;;;;16.60;9.63;;;;;;;;;;5052868;28;20024;-87
2021/06/23 04:54:36;;;;;;;14.98;9.52;;;;;;;;;;5052799;28;20388;-86
2021/06/23 04:57:02;;;;;;;16.95;9.23;;;;;;;;;;5053918;28;20040;-86
2021/06/23 04:59:29;;;;;;;21.58;10.80;;;;;;;;;;5052740;28;20025;-86
2021/06/23 05:01:54;;;;;;;21.13;10.57;;;;;;;;;;5052109;28;20032;-86
2021/06/23 05:04:19;;;;;;;20.92;11.35;;;;;;;;;;5052696;28;20482;-86
2021/06/23 05:06:44;;;;;;;15.10;10.43;;;;;;;;;;5052534;28;20032;-85
2021/06/23 05:09:10;;;;;;;13.50;9.98;;;;;;;;;;5052461;28;20424;-85
2021/06/23 05:11:35;;;;;;;22.85;11.00;;;;;;;;;;5052527;28;20045;-86
2021/06/23 05:14:01;;;;;;;16.55;9.70;;;;;;;;;;5052435;28;20017;-86
2021/06/23 05:16:26;;;;;;;15.43;9.40;;;;;;;;;;5052495;28;20423;-86
2021/06/23 05:18:53;;;;;;;18.65;9.00;;;;;;;;;;5052264;28;20432;-86
2021/06/23 05:21:18;;;;;;;23.63;9.38;;;;;;;;;;5052224;28;20041;-86
2021/06/23 05:23:43;;;;;;;17.98;9.45;;;;;;;;;;5052207;28;20048;-86
2021/06/23 05:26:08;;;;;;;19.75;9.77;;;;;;;;;;5053276;28;20013;-85
2021/06/23 05:28:34;;;;;;;23.08;9.80;;;;;;;;;;5052086;28;20024;-86
2021/06/23 05:30:59;;;;;;;18.85;10.13;;;;;;;;;;5051678;28;20373;-86
2021/06/23 05:33:24;;;;;;;16.60;9.27;;;;;;;;;;5052171;28;20440;-86
2021/06/23 05:35:49;;;;;;;22.92;9.00;;;;;;;;;;5051890;28;20017;-86
2021/06/23 05:38:14;;;;;;;18.95;8.63;;;;;;;;;;5052079;28;20021;-86
2021/06/23 05:40:41;;;;;;;18.05;8.48;;;;;;;;;;5052050;28;20033;-86
2021/06/23 05:43:06;;;;;;;18.80;8.80;;;;;;;;;;5051756;28;20430;-86
2021/06/23 05:45:31;;;;;;;20.33;8.77;;;;;;;;;;5053196;28;20028;-86
2021/06/23 05:47:57;;;;;;;21.50;8.80;;;;;;;;;;5051457;28;20052;-86
2021/06/23 05:50:22;;;;;;;20.05;9.48;;;;;;;;;;5051749;28;20028;-86
2021/06/23 05:52:47;;;;;;;23.92;9.95;;;;;;;;;;5051757;28;20090;-86
2021/06/23 05:55:12;;;;;;;18.52;9.85;;;;;;;;;;5051588;28;20017;-86
2021/06/23 05:57:38;;;;;;;18.75;9.57;;;;;;;;;;5051742;28;20029;-86
2021/06/23 06:00:03;;;;;;;29.00;9.52;;;;;;;;;;5051868;28;20039;-86
2021/06/23 06:02:28;;;;;;;26.52;10.45;;;;;;;;;;5084403;28;20381;-86
2021/06/23 06:04:54;;;;;;;16.73;9.57;;;;;;;;;;5051661;28;20108;-86
2021/06/23 06:07:19;;;;;;;22.80;9.45;;;;;;;;;;5052818;28;20012;-86
2021/06/23 06:09:44;;;;;;;20.17;9.40;;;;;;;;;;5051543;28;20013;-87
2021/06/23 06:12:09;;;;;;;18.52;9.93;;;;;;;;;;5051568;28;20040;-87
2021/06/23 06:14:35;;;;;;;18.42;9.45;;;;;;;;;;5051460;28;20078;-86
2021/06/23 06:17:00;;;;;;;17.83;9.25;;;;;;;;;;5051547;28;20013;-87
2021/06/23 06:19:26;;;;;;;21.20;9.32;;;;;;;;;;5053939;28;20111;-87
2021/06/23 06:21:51;;;;;;;18.45;8.88;;;;;;;;;;5059491;28;20056;-87
2021/06/23 06:24:16;;;;;;;22.98;9.82;;;;;;;;;;5051396;28;20036;-87
2021/06/23 06:26:41;;;;;;;25.20;10.43;;;;;;;;;;5051439;28;20021;-87
2021/06/23 06:29:07;;;;;;;27.02;10.48;;;;;;;;;;5051292;28;20028;-86
2021/06/23 06:31:32;;;;;;;22.20;9.55;;;;;;;;;;5052523;28;20021;-86
2021/06/23 06:33:57;;;;;;;22.55;9.60;;;;;;;;;;5051248;28;20037;-86
2021/06/23 06:36:23;;;;;;;17.38;9.82;;;;;;;;;;5051225;28;20070;-86
2021/06/23 06:38:48;;;;;;;27.45;10.23;;;;;;;;;;5051093;28;20048;-86
2021/06/23 06:41:13;;;;;;;16.23;10.20;;;;;;;;;;5050962;28;20159;-86
2021/06/23 06:43:38;;;;;;;25.92;11.02;;;;;;;;;;5051121;28;20119;-86
2021/06/23 06:46:03;;;;;;;22.20;11.07;;;;;;;;;;5050862;28;20025;-86
2021/06/23 06:48:29;;;;;;;23.58;11.30;;;;;;;;;;5051302;28;20167;-87
2021/06/23 06:50:54;;;;;;;22.48;11.10;;;;;;;;;;5052587;28;20020;-87
2021/06/23 06:53:19;;;;;;;23.23;9.75;;;;;;;;;;5050904;28;20418;-86
2021/06/23 06:55:46;;;;;;;24.95;10.10;;;;;;;;;;5051247;28;20453;-87
2021/06/23 06:58:11;;;;;;;21.40;10.13;;;;;;;;;;5051088;28;20058;-87
2021/06/23 07:00:38;;;;;;;23.55;10.55;;;;;;;;;;5050844;28;20019;-88
2021/06/23 07:03:03;;;;;;;18.00;10.07;;;;;;;;;;5054314;28;20021;-87
2021/06/23 07:05:28;;;;;;;25.20;10.27;;;;;;;;;;5054388;28;20099;-87
2021/06/23 07:07:53;;;;;;;24.88;10.45;;;;;;;;;;5054406;28;20100;-87
2021/06/23 07:10:19;;;;;;;18.77;9.90;;;;;;;;;;5054507;28;20361;-86
2021/06/23 07:12:44;;;;;;;16.73;9.05;;;;;;;;;;5054273;28;20508;-86
2021/06/23 07:15:09;;;;;;;18.05;9.65;;;;;;;;;;5054672;28;20112;-87
2021/06/23 07:17:35;;;;;;;16.63;9.15;;;;;;;;;;5054688;28;20096;-88
2021/06/23 07:20:00;;;;;;;14.40;8.93;;;;;;;;;;5054590;28;20052;-87
2021/06/23 07:22:25;;;;;;;18.27;9.05;;;;;;;;;;5054338;28;20028;-87
2021/06/23 07:24:51;;;;;;;20.27;8.82;;;;;;;;;;5054495;28;20018;-88
2021/06/23 07:27:17;;;;;;;26.02;9.80;;;;;;;;;;5054681;28;20023;-87
2021/06/23 07:29:42;;;;;;;20.00;8.73;;;;;;;;;;5053689;28;20016;-87
2021/06/23 07:32:22;;;;;;;23.15;9.63;;;;;;;;;;5051875;28;20061;-87
2021/06/23 07:37:15;;;;;;;16.90;8.85;;;;;;;;;;5055908;28;20033;-82
2021/06/23 07:39:41;;;;;;;26.67;9.93;;;;;;;;;;5053578;28;20012;-82
2021/06/23 07:42:07;;;;;;;18.45;8.68;;;;;;;;;;5053779;28;20534;-82
2021/06/23 07:44:52;;;;;;;18.33;8.95;;;;;;;;;;5052915;28;20468;-82
2021/06/23 07:47:21;;;;;;;29.90;9.50;;;;;;;;;;5053737;28;20158;-83
2021/06/23 07:49:47;;;;;;;17.92;8.43;;;;;;;;;;5053395;28;20424;-83
2021/06/23 07:52:22;;;;;;;16.88;8.80;;;;;;;;;;5051900;28;20029;-82
2021/06/23 08:15:19;;;;;;;21.25;8.63;;;;;;;;;;5054713;28;20465;-83
2021/06/23 08:17:44;;;;;;;13.75;8.10;;;;;;;;;;5051989;28;20078;-82
2021/06/23 08:20:10;;;;;;;15.77;8.85;;;;;;;;;;5053165;28;20437;-82
2021/06/23 08:22:35;;;;;;;15.75;8.38;;;;;;;;;;5053523;28;20024;-82
2021/06/23 08:25:00;;;;;;;17.80;9.45;;;;;;;;;;5052534;28;20423;-83
2021/06/23 08:27:25;;;;;;;20.65;10.27;;;;;;;;;;5052783;28;20101;-82
2021/06/23 08:29:51;;;;;;;18.65;9.50;;;;;;;;;;5052761;28;20443;-82
2021/06/23 08:32:16;;;;;;;22.92;10.50;;;;;;;;;;5052321;28;20116;-82
2021/06/23 08:34:42;;;;;;;21.20;9.75;;;;;;;;;;5052497;28;20028;-83
2021/06/23 08:37:07;;;;;;;20.90;9.10;;;;;;;;;;5052238;28;20025;-83
2021/06/23 08:39:32;;;;;;;25.67;10.02;;;;;;;;;;5052118;28;20040;-83
2021/06/23 08:41:58;;;;;;;21.73;10.43;;;;;;;;;;5053296;28;20062;-83
2021/06/23 08:44:23;;;;;;;18.60;9.30;;;;;;;;;;5052263;28;20115;-82
2021/06/23 08:46:49;;;;;;;23.88;9.55;;;;;;;;;;5051874;28;20028;-83
2021/06/23 08:49:14;;;;;;;21.83;9.57;;;;;;;;;;5052535;28;20456;-83
2021/06/23 08:51:41;;;;;;;23.63;8.80;;;;;;;;;;5052365;28;20021;-83
2021/06/23 08:54:06;;;;;;;16.25;6.45;;;;;;;;;;5053915;28;20392;-83
2021/06/23 08:56:32;;;;;;;14.57;7.05;;;;;;;;;;5051099;28;20025;-83
2021/06/23 08:58:57;;;;;;;18.30;7.05;;;;;;;;;;5051961;28;20378;-84
2021/06/23 09:01:22;;;;;;;14.88;6.32;;;;;;;;;;5052482;28;20044;-83
2021/06/23 09:04:00;;;;;;;14.05;6.75;;;;;;;;;;5051885;28;20035;-83
2021/06/23 09:06:41;;;;;;;14.35;6.22;;;;;;;;;;5052295;28;20025;-83
2021/06/23 09:09:26;;;;;;;16.30;6.80;;;;;;;;;;5051296;28;20487;-83
2021/06/23 09:11:54;;;;;;;15.35;5.65;;;;;;;;;;5067991;28;20299;-84
2021/06/23 09:14:20;;;;;;;19.52;5.95;;;;;;;;;;5051596;28;20137;-84
2021/06/23 09:17:05;;;;;;;13.32;5.45;;;;;;;;;;5052116;28;20025;-83
2021/06/23 09:19:54;;;;;;;16.40;5.03;;;;;;;;;;5051889;28;20032;-84
2021/06/23 09:22:36;;;;;;;9.35;4.90;;;;;;;;;;5048748;28;20025;-83
2021/06/23 09:25:22;;;;;;;12.82;5.43;;;;;;;;;;5051020;28;20113;-84
2021/06/23 09:27:48;;;;;;;11.70;4.85;;;;;;;;;;5051003;28;20423;-84
2021/06/23 09:30:25;;;;;;;9.88;5.32;;;;;;;;;;5051304;28;20665;-84
2021/06/23 09:33:06;;;;;;;15.50;5.53;;;;;;;;;;5051609;28;20013;-84
2021/06/23 09:35:32;;;;;;;11.65;4.70;;;;;;;;;;5048200;28;20393;-84
2021/06/23 09:37:57;;;;;;;12.90;5.88;;;;;;;;;;5055354;28;20025;-84
2021/06/23 09:40:24;;;;;;;10.73;5.72;;;;;;;;;;5051709;28;20051;-84
2021/06/23 09:43:02;;;;;;;11.43;5.35;;;;;;;;;;5050935;28;20366;-83
2021/06/23 09:45:31;;;;;;;13.20;5.57;;;;;;;;;;5050576;28;20380;-84
2021/06/23 09:48:01;;;;;;;15.10;5.68;;;;;;;;;;5052615;28;20040;-83
2021/06/23 09:50:27;;;;;;;20.48;6.90;;;;;;;;;;5049574;28;20055;-83
2021/06/23 09:52:55;;;;;;;13.82;5.13;;;;;;;;;;5045046;28;20021;-84
2021/06/23 09:55:32;;;;;;;28.83;6.40;;;;;;;;;;5048016;28;20052;-83
2021/06/23 09:58:06;;;;;;;19.70;5.28;;;;;;;;;;5050892;28;20021;-84
2021/06/23 10:00:33;;;;;;;14.05;5.97;;;;;;;;;;5050806;28;20028;-84
2021/06/23 10:03:03;;;;;;;12.65;6.28;;;;;;;;;;5050813;28;20138;-84
2021/06/23 10:05:29;;;;;;;18.20;5.38;;;;;;;;;;5052732;28;20071;-83
2021/06/23 10:07:54;;;;;;;18.42;5.60;;;;;;;;;;5054227;28;20017;-84
2021/06/23 10:10:23;;;;;;;21.42;6.97;;;;;;;;;;5050975;28;20136;-83
2021/06/23 10:12:49;;;;;;;16.70;7.05;;;;;;;;;;5050918;28;20020;-84
2021/06/23 10:15:15;;;;;;;16.73;6.90;;;;;;;;;;5050833;28;20024;-84
2021/06/23 10:17:40;;;;;;;11.32;5.88;;;;;;;;;;5050796;28;20566;-84
2021/06/23 10:20:06;;;;;;;12.07;6.05;;;;;;;;;;5049145;28;20036;-84
2021/06/23 10:22:31;;;;;;;12.63;5.95;;;;;;;;;;5045812;28;20480;-84
2021/06/23 10:25:00;;;;;;;10.98;5.45;;;;;;;;;;5050427;28;20052;-83
2021/06/23 10:27:26;;;;;;;11.32;5.80;;;;;;;;;;5050323;28;20032;-84
2021/06/23 10:29:52;;;;;;;15.00;5.88;;;;;;;;;;5050546;28;20021;-84
2021/06/23 10:32:17;;;;;;;16.40;6.07;;;;;;;;;;5050002;28;20024;-84
2021/06/23 10:34:42;;;;;;;16.48;5.35;;;;;;;;;;5050541;28;20471;-83
2021/06/23 10:37:08;;;;;;;12.77;4.95;;;;;;;;;;5052381;28;20380;-84
2021/06/23 10:39:34;;;;;;;15.60;5.70;;;;;;;;;;5054202;28;20025;-83
2021/06/23 10:42:01;;;;;;;9.35;4.95;;;;;;;;;;5052951;28;20025;-83
2021/06/23 10:44:27;;;;;;;14.82;5.22;;;;;;;;;;5053496;28;20407;-83
2021/06/23 10:46:56;;;;;;;13.30;5.05;;;;;;;;;;5053757;28;20422;-84
2021/06/23 10:49:42;;;;;;;16.45;5.40;;;;;;;;;;5045802;28;20480;-83
2021/06/23 10:52:19;;;;;;;15.88;5.38;;;;;;;;;;5066663;28;20032;-82
2021/06/23 10:54:45;;;;;;;18.42;6.10;;;;;;;;;;5049948;28;20055;-81
2021/06/23 10:57:25;;;;;;;12.93;5.72;;;;;;;;;;5053891;28;20057;-82
2021/06/23 10:59:52;;;;;;;14.40;5.63;;;;;;;;;;5054168;28;20029;-82
2021/06/23 11:02:17;;;;;;;18.73;6.20;;;;;;;;;;5054003;28;20024;-82
2021/06/23 11:05:09;;;;;;;14.98;6.30;;;;;;;;;;5055536;28;20017;-82
2021/06/23 11:07:44;;;;;;;19.07;6.77;;;;;;;;;;5053870;28;20484;-83
2021/06/23 11:10:16;;;;;;;12.65;4.88;;;;;;;;;;5053604;28;20041;-83
2021/06/23 11:12:48;;;;;;;12.57;5.97;;;;;;;;;;5053131;28;20104;-83
2021/06/23 11:15:14;;;;;;;18.40;5.68;;;;;;;;;;5051449;28;20036;-83
2021/06/23 11:17:39;;;;;;;13.88;5.60;;;;;;;;;;5052003;28;20017;-83
2021/06/23 11:20:24;;;;;;;13.75;4.93;;;;;;;;;;5053182;28;20067;-83
2021/06/23 11:22:50;;;;;;;9.82;5.05;;;;;;;;;;5052668;28;20052;-82
2021/06/23 11:25:21;;;;;;;11.93;4.97;;;;;;;;;;5052790;28;20420;-83
2021/06/23 11:28:05;;;;;;;13.57;5.90;;;;;;;;;;5053027;28;20021;-83
2021/06/23 11:30:30;;;;;;;21.83;6.15;;;;;;;;;;5077278;28;20087;-82
2021/06/23 11:32:56;;;;;;;14.27;5.32;;;;;;;;;;5052332;28;20032;-83
2021/06/23 11:35:21;;;;;;;17.88;5.45;;;;;;;;;;5053362;28;20016;-83
2021/06/23 11:37:46;;;;;;;15.30;6.32;;;;;;;;;;5054112;28;20029;-83
2021/06/23 11:40:13;;;;;;;15.60;5.68;;;;;;;;;;5052857;28;20048;-83
2021/06/23 11:42:39;;;;;;;16.45;5.70;;;;;;;;;;5051988;28;20568;-83
2021/06/23 11:45:04;;;;;;;17.10;6.15;;;;;;;;;;5053689;28;20032;-83
2021/06/23 11:47:30;;;;;;;17.75;5.93;;;;;;;;;;5053038;28;20024;-83
2021/06/23 11:49:55;;;;;;;12.32;5.97;;;;;;;;;;5052631;28;20017;-83
2021/06/23 11:52:20;;;;;;;14.07;7.25;;;;;;;;;;5052306;28;20059;-83
2021/06/23 11:54:45;;;;;;;16.63;6.95;;;;;;;;;;5052878;28;20476;-83
2021/06/23 11:57:11;;;;;;;17.15;6.65;;;;;;;;;;5052424;28;20361;-83
2021/06/23 11:59:36;;;;;;;16.23;5.93;;;;;;;;;;5052939;28;20036;-83
2021/06/23 12:02:02;;;;;;;21.50;7.80;;;;;;;;;;5051923;28;20024;-83
2021/06/23 12:04:29;;;;;;;10.38;5.90;;;;;;;;;;5052829;28;20082;-83
2021/06/23 12:06:54;;;;;;;28.80;8.15;;;;;;;;;;5050601;28;20032;-83
2021/06/23 12:09:19;;;;;;;13.90;6.75;;;;;;;;;;5046846;28;20013;-83
2021/06/23 12:11:45;;;;;;;17.92;7.88;;;;;;;;;;5059489;28;20020;-83
2021/06/23 12:14:10;;;;;;;18.98;7.07;;;;;;;;;;5051208;28;20467;-83
2021/06/23 12:16:35;;;;;;;25.40;7.95;;;;;;;;;;5052368;28;20024;-83
2021/06/23 12:19:00;;;;;;;21.95;8.50;;;;;;;;;;5052126;28;20024;-82
2021/06/23 12:21:26;;;;;;;17.92;7.68;;;;;;;;;;5054087;28;20131;-83
2021/06/23 12:23:51;;;;;;;19.83;7.30;;;;;;;;;;5050916;28;20025;-83
2021/06/23 12:26:22;;;;;;;17.70;7.75;;;;;;;;;;5050497;28;20031;-83
2021/06/23 12:28:47;;;;;;;15.23;7.13;;;;;;;;;;5052187;28;20388;-82
2021/06/23 12:31:12;;;;;;;14.25;6.45;;;;;;;;;;5052348;28;20015;-82
2021/06/23 12:33:37;;;;;;;23.25;7.63;;;;;;;;;;5053942;28;20021;-83
2021/06/23 12:36:03;;;;;;;22.90;7.40;;;;;;;;;;5052268;28;20028;-82
2021/06/23 12:38:29;;;;;;;14.45;6.95;;;;;;;;;;5052553;28;20480;-83
2021/06/23 12:40:54;;;;;;;17.55;7.70;;;;;;;;;;5052714;28;20032;-83
2021/06/23 12:43:20;;;;;;;22.20;6.88;;;;;;;;;;5051742;28;20071;-83
2021/06/23 12:45:48;;;;;;;15.63;7.35;;;;;;;;;;5052522;28;20384;-82
2021/06/23 12:48:14;;;;;;;14.00;6.22;;;;;;;;;;5052254;28;20412;-83
2021/06/23 12:50:39;;;;;;;19.10;7.22;;;;;;;;;;5052403;28;20112;-83
2021/06/23 12:53:04;;;;;;;21.35;6.95;;;;;;;;;;5051121;28;20027;-82
2021/06/23 12:55:30;;;;;;;20.65;7.78;;;;;;;;;;5052965;28;20044;-83
2021/06/23 12:57:55;;;;;;;20.05;6.80;;;;;;;;;;5052019;28;20025;-83
2021/06/23 13:00:22;;;;;;;16.10;6.70;;;;;;;;;;5051139;28;20017;-83
2021/06/23 13:02:47;;;;;;;17.15;7.18;;;;;;;;;;5052277;28;20032;-82
2021/06/23 13:05:13;;;;;;;15.68;7.18;;;;;;;;;;5051769;28;20218;-83
2021/06/23 13:07:39;;;;;;;17.92;6.75;;;;;;;;;;5051962;28;20013;-83
2021/06/23 13:10:04;;;;;;;23.55;7.93;;;;;;;;;;5052016;28;20655;-83
2021/06/23 13:12:32;;;;;;;17.33;7.28;;;;;;;;;;5051604;28;20059;-83
2021/06/23 13:14:57;;;;;;;23.80;8.93;;;;;;;;;;5052868;28;20045;-82
2021/06/23 13:17:22;;;;;;;17.85;7.85;;;;;;;;;;5053082;28;20075;-82
2021/06/23 13:19:47;;;;;;;17.42;8.13;;;;;;;;;;5051432;28;20473;-83
2021/06/23 13:22:13;;;;;;;19.77;8.20;;;;;;;;;;5051806;28;20025;-83
2021/06/23 13:24:38;;;;;;;17.95;7.88;;;;;;;;;;5037971;28;20024;-83
2021/06/23 13:27:04;;;;;;;20.33;8.60;;;;;;;;;;5051664;28;20024;-83
2021/06/23 13:29:29;;;;;;;21.50;7.95;;;;;;;;;;5052560;28;20135;-82
2021/06/23 13:31:55;;;;;;;15.73;8.15;;;;;;;;;;5051449;28;20453;-83
2021/06/23 13:34:20;;;;;;;23.85;9.98;;;;;;;;;;5050968;28;20115;-82
2021/06/23 13:36:45;;;;;;;18.23;7.50;;;;;;;;;;5051406;28;20402;-82
2021/06/23 13:39:11;;;;;;;18.40;7.97;;;;;;;;;;5051209;28;20430;-82
2021/06/23 13:41:37;;;;;;;20.90;8.13;;;;;;;;;;5052444;28;20112;-82
2021/06/23 13:44:02;;;;;;;22.98;8.80;;;;;;;;;;5051378;28;20031;-83
2021/06/23 13:46:27;;;;;;;16.58;8.52;;;;;;;;;;5052440;28;20021;-83
2021/06/23 13:48:52;;;;;;;18.38;8.32;;;;;;;;;;5052835;28;20017;-83
2021/06/23 13:51:17;;;;;;;24.48;9.80;;;;;;;;;;5050888;28;20376;-82
2021/06/23 13:53:43;;;;;;;19.85;9.07;;;;;;;;;;5051345;28;20036;-83
2021/06/23 13:56:08;;;;;;;19.10;9.10;;;;;;;;;;5051170;28;20032;-83
2021/06/23 13:58:33;;;;;;;19.65;8.30;;;;;;;;;;5050208;28;20057;-82
2021/06/23 14:00:58;;;;;;;12.75;7.78;;;;;;;;;;5044326;28;20071;-82
2021/06/23 14:03:24;;;;;;;16.80;7.70;;;;;;;;;;5050606;28;20058;-82
2021/06/23 14:05:53;;;;;;;17.30;8.43;;;;;;;;;;5050381;28;20058;-82
2021/06/23 14:08:18;;;;;;;16.00;8.65;;;;;;;;;;5050426;28;20124;-83
2021/06/23 14:10:43;;;;;;;21.48;8.95;;;;;;;;;;5050757;28;20052;-83
2021/06/23 14:13:09;;;;;;;14.35;8.65;;;;;;;;;;5051102;28;20363;-83
2021/06/23 14:15:34;;;;;;;17.73;9.35;;;;;;;;;;5052160;28;20021;-83
2021/06/23 14:17:59;;;;;;;19.77;8.73;;;;;;;;;;5051103;28;20051;-83
2021/06/23 14:20:25;;;;;;;18.42;7.53;;;;;;;;;;5050875;28;20109;-83
2021/06/23 14:22:50;;;;;;;17.45;7.85;;;;;;;;;;5050652;28;20078;-83
2021/06/23 14:25:16;;;;;;;19.67;8.45;;;;;;;;;;5050806;28;20494;-83
2021/06/23 14:27:41;;;;;;;16.75;8.50;;;;;;;;;;5050785;28;20108;-82
2021/06/23 14:30:08;;;;;;;17.60;8.15;;;;;;;;;;5050686;28;20032;-82
2021/06/23 14:32:34;;;;;;;21.50;8.30;;;;;;;;;;5050521;28;20029;-83
2021/06/23 14:34:59;;;;;;;14.57;8.38;;;;;;;;;;5046474;28;20017;-83
2021/06/23 14:37:24;;;;;;;21.33;8.00;;;;;;;;;;5050111;28;20082;-83
2021/06/23 14:39:50;;;;;;;15.85;7.97;;;;;;;;;;5050360;28;20017;-83
2021/06/23 14:42:16;;;;;;;12.98;7.43;;;;;;;;;;5050485;28;20052;-83
2021/06/23 14:44:41;;;;;;;18.75;7.65;;;;;;;;;;5049025;28;20057;-83
2021/06/23 14:47:06;;;;;;;14.57;7.22;;;;;;;;;;5049161;28;20376;-83
2021/06/23 14:49:32;;;;;;;22.17;8.20;;;;;;;;;;5050015;28;20071;-83